Time;durP1;ratioP1;P1;durP2;ratioP2;P2;SDS_P1;SDS_P2;PMS_P1;PMS_P2;Temp;Humidity;BMP_temperature;BMP_pressure;BME280_temperature;BME280_humidity;BME280_pressure;Samples;Min_cycle;Max_cycle;Signal;HPM_P1;HPM_P2
2023/06/24 00:02:23;;;;;;;;;;;22.10;54.60;;;21.08;54.36;101795.97;12280922;19;19915;-95
2023/06/24 00:06:25;;;;;;;;;;;22.10;54.60;;;21.13;54.78;101799.09;12285918;19;19943;-94
2023/06/24 00:10:27;;;;;;;;;;;22.10;54.60;;;20.89;54.39;101775.41;12279377;19;20329;-94
2023/06/24 00:14:32;;;;;;;;;;;22.10;54.60;;;21.05;54.28;101788.25;12274864;19;19922;-93
2023/06/24 00:18:35;;;;;;;;;;;22.10;54.60;;;21.02;54.66;101779.72;12277281;19;19925;-94
2023/06/24 00:22:44;;;;;;;;;;;22.10;54.60;;;20.98;54.61;101785.28;12272546;19;19943;-94
2023/06/24 00:26:48;;;;;;;;;;;22.10;54.60;;;21.21;54.78;101830.34;12276965;19;20329;-94
2023/06/24 00:30:50;;;;;;;;;;;22.10;54.60;;;20.82;54.87;101771.59;12272566;19;19938;-94
2023/06/24 00:34:52;;;;;;;;;;;22.10;54.70;;;20.96;54.83;101797.84;12275908;19;19915;-94
2023/06/24 00:38:55;;;;;;;;;;;22.10;54.70;;;21.25;54.46;101838.91;12288770;19;19944;-94
2023/06/24 00:42:58;;;;;;;;;;;22.10;54.70;;;21.19;54.82;101833.13;12289357;19;19922;-94
2023/06/24 00:47:02;;;;;;;;;;;22.10;54.70;;;20.92;54.61;101799.03;12287287;19;19915;-95
2023/06/24 00:51:03;;;;;;;;;;;22.10;54.70;;;20.89;54.84;101780.72;12286765;19;19947;-94
2023/06/24 00:55:06;;;;;;;;;;;22.00;54.80;;;21.04;54.52;101812.31;12292144;19;19911;-94
2023/06/24 00:59:11;;;;;;;;;;;22.00;54.80;;;20.84;54.56;101790.03;12291531;19;19914;-95
2023/06/24 01:03:16;;;;;;;;;;;22.00;54.80;;;20.76;54.71;101782.69;12288085;19;19926;-94
2023/06/24 01:07:18;;;;;;;;;;;22.00;54.90;;;21.05;55.04;101824.59;12285666;19;19922;-94
2023/06/24 01:11:19;;;;;;;;;;;22.00;55.00;;;21.07;54.81;101825.34;12289566;19;19930;-94
2023/06/24 01:15:22;;;;;;;;;;;22.00;55.10;;;20.89;54.88;101806.44;12290964;19;19927;-94
2023/06/24 01:19:51;;;;;;;;;;;21.90;55.10;;;21.10;54.87;101841.00;12291523;19;20253;-94
2023/06/24 01:24:38;;;;;;;;;;;21.90;55.20;;;21.07;54.84;101838.63;12286660;19;19942;-93
2023/06/24 01:28:56;;;;;;;;;;;21.90;55.30;;;20.98;54.96;101827.78;12291027;19;19915;-95
2023/06/24 01:33:09;;;;;;;;;;;21.90;55.30;;;20.76;54.87;101799.44;12295257;19;19929;-95
2023/06/24 01:37:33;;;;;;;;;;;21.80;55.20;;;20.87;54.99;101814.50;12298888;19;19967;-94
2023/06/24 01:41:47;;;;;;;;;;;21.80;55.20;;;20.96;54.93;101828.88;12294681;19;19919;-94
2023/06/24 01:45:51;;;;;;;;;;;21.80;55.30;;;20.66;55.03;101779.94;12297537;19;19915;-94
2023/06/24 01:49:57;;;;;;;;;;;21.80;55.40;;;20.93;54.87;101829.97;12296500;19;19938;-94
2023/06/24 01:54:05;;;;;;;;;;;21.80;55.40;;;20.68;54.89;101793.91;12291299;19;19922;-94
2023/06/24 01:58:09;;;;;;;;;;;21.70;55.40;;;20.56;55.20;101768.38;12290429;19;19923;-95
2023/06/24 02:02:12;;;;;;;;;;;21.70;55.40;;;20.70;54.85;101780.53;12290959;19;19915;-94
2023/06/24 02:06:15;;;;;;;;;;;21.70;55.40;;;20.54;55.00;101749.91;12293358;19;19930;-95
2023/06/24 02:10:17;;;;;;;;;;;21.70;55.40;;;20.69;54.99;101782.34;12297180;19;19907;-95
2023/06/24 02:14:19;;;;;;;;;;;21.70;55.30;;;20.72;55.11;101794.53;12290198;19;19923;-94
2023/06/24 02:18:23;;;;;;;;;;;21.70;55.30;;;20.69;55.30;101787.66;12291688;19;19914;-95
2023/06/24 02:22:25;;;;;;;;;;;21.70;55.30;;;20.65;55.17;101794.16;12288795;19;19942;-95
2023/06/24 02:26:27;;;;;;;;;;;21.70;55.30;;;20.76;55.08;101812.72;12291438;19;19915;-95
2023/06/24 02:30:30;;;;;;;;;;;21.60;55.30;;;20.44;54.92;101769.34;12295094;19;19921;-94
2023/06/24 02:34:32;;;;;;;;;;;21.60;55.30;;;20.62;54.87;101799.72;12291928;19;19976;-94
2023/06/24 02:38:35;;;;;;;;;;;21.60;55.30;;;20.57;55.16;101795.75;12298211;19;19947;-95
2023/06/24 02:42:38;;;;;;;;;;;21.60;55.30;;;20.43;55.11;101772.97;12298800;19;19926;-95
2023/06/24 02:46:42;;;;;;;;;;;21.50;55.30;;;20.43;55.01;101797.69;12294587;19;19926;-94
2023/06/24 02:50:44;;;;;;;;;;;21.50;55.30;;;20.48;55.01;101813.25;12299266;19;20546;-95
2023/06/24 02:54:49;;;;;;;;;;;21.50;55.30;;;20.48;55.13;101819.38;12296248;19;19960;-94
2023/06/24 02:59:10;;;;;;;;;;;21.40;55.30;;;20.64;55.15;101842.94;12290058;19;19914;-94
2023/06/24 03:03:14;;;;;;;;;;;21.50;55.60;;;20.32;55.43;101792.38;12290454;19;19926;-94
2023/06/24 03:07:27;;;;;;;;;;;21.40;55.30;;;20.38;55.00;101813.13;12290301;19;19915;-94
2023/06/24 03:11:29;;;;;;;;;;;21.40;55.30;;;20.17;55.06;101789.16;12290584;19;19911;-95
2023/06/24 03:15:33;;;;;;;;;;;21.40;55.70;;;20.54;55.02;101864.03;12287858;19;19926;-95
2023/06/24 03:19:37;;;;;;;;;;;21.40;55.30;;;20.38;54.95;101839.66;12289123;19;19919;-94
2023/06/24 03:23:39;;;;;;;;;;;21.40;55.30;;;20.30;55.44;101832.28;12286930;19;19914;-93
2023/06/24 03:27:44;;;;;;;;;;;21.30;55.30;;;20.42;55.00;101850.88;12288531;19;19922;-94
2023/06/24 03:31:46;;;;;;;;;;;21.30;55.30;;;20.52;55.20;101870.41;12289300;19;19918;-94
2023/06/24 03:35:54;;;;;;;;;;;21.30;55.30;;;20.20;55.34;101820.75;12280884;19;19915;-94
2023/06/24 03:40:00;;;;;;;;;;;21.30;55.30;;;20.02;55.03;101801.78;12286437;19;19917;-95
2023/06/24 03:44:03;;;;;;;;;;;21.30;55.20;;;20.12;55.35;101823.16;12281586;19;19923;-94
2023/06/24 03:48:09;;;;;;;;;;;21.30;55.20;;;20.13;54.99;101838.09;12280734;19;19926;-94
2023/06/24 03:52:11;;;;;;;;;;;21.30;55.30;;;20.08;55.48;101840.25;12279928;19;19951;-94
2023/06/24 03:56:14;;;;;;;;;;;21.20;55.20;;;20.30;55.53;101872.09;12280570;19;19954;-94
2023/06/24 04:00:17;;;;;;;;;;;21.20;55.20;;;20.02;55.35;101827.47;12280081;19;20356;-95
2023/06/24 04:04:22;;;;;;;;;;;21.20;55.20;;;20.02;55.31;101827.47;12280621;19;19919;-94
2023/06/24 04:08:29;;;;;;;;;;;21.20;55.30;;;20.26;55.14;101875.13;12281700;19;19923;-95
2023/06/24 04:12:30;;;;;;;;;;;21.20;55.30;;;19.94;55.48;101830.72;12282777;19;19975;-94
2023/06/24 04:16:33;;;;;;;;;;;21.20;55.40;;;20.20;55.34;101876.44;12287660;19;19943;-94
2023/06/24 04:20:43;;;;;;;;;;;21.10;55.30;;;20.02;55.68;101836.28;12286112;19;19918;-93
2023/06/24 04:24:45;;;;;;;;;;;21.20;55.40;;;20.03;55.61;101855.66;12289371;19;19923;-95
2023/06/24 04:28:47;;;;;;;;;;;21.10;55.50;;;19.91;55.50;101838.06;12289359;19;19915;-94
2023/06/24 04:32:50;;;;;;;;;;;21.20;55.60;;;20.23;55.61;101892.13;12291377;19;19927;-95
2023/06/24 04:36:52;;;;;;;;;;;21.10;55.50;;;20.03;55.46;101858.31;12295300;19;20011;-95
2023/06/24 04:40:54;;;;;;;;;;;21.10;55.40;;;19.96;55.75;101852.66;12289732;19;19935;-94
2023/06/24 04:44:56;;;;;;;;;;;21.40;55.60;;;19.97;55.39;101848.19;12294896;19;19937;-94
2023/06/24 04:48:59;;;;;;;;;;;21.10;55.50;;;20.22;55.41;101901.03;12279502;19;19945;-93
2023/06/24 04:53:04;;;;;;;;;;;21.20;55.60;;;20.28;55.58;101913.84;12272296;19;19935;-93
2023/06/24 04:57:36;;;;;;;;;;;21.10;55.50;;;19.93;55.54;101863.50;12272776;19;19930;-94
2023/06/24 05:01:38;;;;;;;;;;;21.10;55.60;;;20.29;55.53;101919.97;12252778;19;19934;-85
2023/06/24 05:05:39;;;;;;;;;;;21.20;55.60;;;20.20;55.83;101913.59;12247505;19;19919;-85
2023/06/24 05:09:40;;;;;;;;;;;21.20;55.70;;;20.10;55.66;101899.34;12248254;19;19927;-85
2023/06/24 05:13:42;;;;;;;;;;;21.10;55.50;;;20.21;55.33;101914.41;12243156;19;20288;-86
2023/06/24 05:17:44;;;;;;;;;;;21.10;55.60;;;20.25;55.64;101918.50;12244923;19;19919;-84
2023/06/24 05:21:45;;;;;;;;;;;21.10;55.70;;;20.22;55.81;101918.75;12247582;19;19941;-84
2023/06/24 05:25:47;;;;;;;;;;;21.10;55.80;;;20.26;55.74;101925.53;12257649;19;19930;-84
2023/06/24 05:29:48;;;;;;;;;;;21.10;55.80;;;20.28;55.79;101924.44;12260998;19;19911;-90
2023/06/24 05:33:50;;;;;;;;;;;21.10;55.80;;;20.28;55.84;101919.13;12262072;19;19983;-89
2023/06/24 05:37:52;;;;;;;;;;;21.20;55.90;;;20.38;55.50;101935.16;12263997;19;20253;-90
2023/06/24 05:41:53;;;;;;;;;;;21.20;56.00;;;20.43;55.86;101935.66;12264005;19;19919;-90
2023/06/24 05:45:55;;;;;;;;;;;21.30;56.20;;;20.45;55.97;101930.25;12261969;19;19923;-90
2023/06/24 05:49:57;;;;;;;;;;;21.40;56.10;;;20.55;56.12;101940.06;12263973;19;20333;-90
2023/06/24 05:53:58;;;;;;;;;;;21.40;56.20;;;20.68;56.07;101937.25;12262293;19;19911;-89
2023/06/24 05:58:00;;;;;;;;;;;21.60;56.50;;;20.82;56.01;101953.91;12260423;19;19942;-86
2023/06/24 06:02:02;;;;;;;;;;;21.70;56.40;;;20.86;56.06;101948.25;12249209;19;19998;-85
2023/06/24 06:06:04;;;;;;;;;;;21.80;56.40;;;20.86;56.19;101947.41;12253669;19;19915;-86
2023/06/24 06:10:06;;;;;;;;;;;21.80;56.30;;;21.00;56.12;101960.44;12256018;19;19926;-89
2023/06/24 06:14:08;;;;;;;;;;;21.90;56.30;;;21.09;56.04;101965.03;12252924;19;19919;-86
2023/06/24 06:18:09;;;;;;;;;;;22.00;56.30;;;21.18;55.91;101966.09;12254070;19;19918;-86
2023/06/24 06:22:11;;;;;;;;;;;22.10;56.30;;;21.06;56.08;101936.03;12254018;19;19919;-86
2023/06/24 06:26:13;;;;;;;;;;;22.10;56.30;;;21.32;56.16;101960.50;12251357;19;19922;-86
2023/06/24 06:30:15;;;;;;;;;;;22.20;56.30;;;21.42;56.08;101963.28;12255222;19;19930;-86
2023/06/24 06:34:16;;;;;;;;;;;22.30;56.40;;;21.32;56.16;101936.59;12245805;19;19978;-85
2023/06/24 06:38:21;;;;;;;;;;;22.40;56.20;;;21.48;56.15;101946.84;12251252;19;20206;-87
2023/06/24 06:42:23;;;;;;;;;;;22.50;56.30;;;21.59;56.30;101957.44;12251939;19;19939;-86
2023/06/24 06:46:25;;;;;;;;;;;22.60;56.20;;;21.67;56.15;101953.31;12253030;19;19919;-89
2023/06/24 06:50:26;;;;;;;;;;;22.70;56.40;;;21.62;56.41;101924.44;12246916;19;19926;-87
2023/06/24 06:54:28;;;;;;;;;;;22.70;56.20;;;21.77;56.26;101944.44;12250628;19;20277;-86
2023/06/24 06:58:29;;;;;;;;;;;22.80;56.10;;;21.90;56.33;101943.38;12252251;19;19931;-87
2023/06/24 07:02:30;;;;;;;;;;;23.00;56.10;;;22.06;56.17;101962.41;12252651;19;20245;-87
2023/06/24 07:06:32;;;;;;;;;;;23.10;56.20;;;22.18;56.42;101955.22;12252488;19;20262;-87
2023/06/24 07:10:34;;;;;;;;;;;23.20;56.00;;;22.27;56.38;101949.13;12254327;19;19911;-87
2023/06/24 07:14:35;;;;;;;;;;;23.20;56.00;;;22.27;56.28;101927.84;12249607;19;19930;-88
2023/06/24 07:18:37;;;;;;;;;;;23.30;56.00;;;22.43;56.12;101949.50;12255226;19;19911;-87
2023/06/24 07:22:38;;;;;;;;;;;23.50;56.00;;;22.51;56.23;101952.34;12250381;19;19948;-87
2023/06/24 07:26:40;;;;;;;;;;;23.40;55.80;;;22.38;56.22;101910.97;12252722;19;19918;-89
2023/06/24 07:30:41;;;;;;;;;;;23.60;55.90;;;22.65;56.21;101942.31;12245955;19;19911;-89
2023/06/24 07:34:43;;;;;;;;;;;23.70;55.70;;;22.76;56.21;101942.22;12250426;19;19919;-89
2023/06/24 07:38:44;;;;;;;;;;;23.80;55.80;;;22.66;56.26;101931.56;12253576;19;20362;-88
2023/06/24 07:42:46;;;;;;;;;;;23.90;55.70;;;22.77;56.43;101938.59;12252195;19;19915;-89
2023/06/24 07:46:48;;;;;;;;;;;24.00;55.70;;;22.86;56.38;101947.59;12250434;19;19983;-88
2023/06/24 07:50:50;;;;;;;;;;;24.00;55.60;;;23.11;56.22;101970.28;12252288;19;19950;-88
2023/06/24 07:54:52;;;;;;;;;;;24.20;55.50;;;23.16;56.36;101965.38;12251743;19;19929;-89
2023/06/24 07:58:53;;;;;;;;;;;24.30;55.50;;;23.34;56.10;101966.41;12259427;19;19922;-90
2023/06/24 08:02:57;;;;;;;;;;;24.40;55.50;;;23.39;56.43;101977.50;12255867;19;19919;-90
2023/06/24 08:06:59;;;;;;;;;;;24.40;55.20;;;23.26;55.98;101955.59;12254807;19;19978;-87
2023/06/24 08:11:02;;;;;;;;;;;24.50;55.10;;;23.28;56.26;101948.31;12254606;19;19942;-88
2023/06/24 08:15:04;;;;;;;;;;;24.50;55.10;;;23.54;56.14;101987.75;12254688;19;19931;-89
2023/06/24 08:19:05;;;;;;;;;;;24.60;55.10;;;23.63;56.42;101974.44;12255050;19;19923;-88
2023/06/24 08:23:06;;;;;;;;;;;24.70;55.10;;;23.68;56.22;101965.16;12248790;19;20341;-88
2023/06/24 08:27:46;;;;;;;;;;;24.80;54.80;;;23.76;55.82;101984.88;12252654;19;19918;-87
2023/06/24 08:31:47;;;;;;;;;;;24.80;54.10;;;23.75;56.19;101980.50;12247432;19;19922;-86
2023/06/24 08:35:49;;;;;;;;;;;25.00;54.20;;;23.85;56.02;101983.19;12248571;19;19915;-87
2023/06/24 08:39:51;;;;;;;;;;;24.90;54.20;;;23.87;55.99;101977.69;12248035;19;19923;-86
2023/06/24 08:43:56;;;;;;;;;;;24.90;54.10;;;24.00;55.75;101996.94;12246721;19;19926;-86
2023/06/24 08:48:40;;;;;;;;;;;25.20;54.10;;;24.10;55.60;101997.78;12245352;19;20230;-87
2023/06/24 08:52:52;;;;;;;;;;;25.10;54.00;;;24.15;55.53;101984.00;12245809;19;19940;-86
2023/06/24 08:56:53;;;;;;;;;;;25.20;54.10;;;24.25;55.51;101985.69;12247470;19;20690;-88
2023/06/24 09:00:55;;;;;;;;;;;25.30;53.90;;;24.26;55.71;101981.16;12258722;19;19922;-87
2023/06/24 09:04:56;;;;;;;;;;;25.30;53.80;;;24.22;55.37;101959.28;12258727;19;19921;-86
2023/06/24 09:08:58;;;;;;;;;;;25.40;53.80;;;24.47;55.86;101976.50;12254757;19;19982;-86
2023/06/24 09:13:04;;;;;;;;;;;25.50;54.00;;;24.64;55.52;101992.78;12256889;19;20230;-87
2023/06/24 09:17:09;;;;;;;;;;;25.60;53.90;;;24.64;55.64;101966.06;12257699;19;20943;-87
2023/06/24 09:21:11;;;;;;;;;;;25.80;53.90;;;24.80;55.54;101986.81;12255571;19;19942;-87
2023/06/24 09:25:19;;;;;;;;;;;25.90;53.50;;;24.83;55.16;101982.00;12259094;19;20351;-87
2023/06/24 09:29:25;;;;;;;;;;;25.90;53.40;;;24.76;55.60;101969.38;12259092;19;19910;-86
2023/06/24 09:33:27;;;;;;;;;;;25.90;53.40;;;24.97;55.16;101993.19;12253964;19;19925;-86
2023/06/24 09:37:31;;;;;;;;;;;26.00;53.00;;;24.95;55.60;101974.63;12256307;19;19937;-87
2023/06/24 09:41:32;;;;;;;;;;;26.10;53.30;;;25.14;55.03;101998.59;12255305;19;19931;-86
2023/06/24 09:45:34;;;;;;;;;;;26.20;53.10;;;25.01;55.21;101965.19;12257948;19;19922;-85
2023/06/24 09:49:36;;;;;;;;;;;26.40;53.20;;;25.16;55.08;101977.91;12260365;19;20504;-86
2023/06/24 09:53:37;;;;;;;;;;;26.30;52.90;;;25.31;54.80;102002.31;12253960;19;19936;-86
2023/06/24 09:57:40;;;;;;;;;;;26.40;53.00;;;25.36;54.99;101988.50;12257617;19;19915;-86
2023/06/24 10:01:44;;;;;;;;;;;26.40;52.80;;;25.42;54.75;101985.22;12256708;19;19914;-86
2023/06/24 10:05:45;;;;;;;;;;;26.50;52.90;;;25.48;54.91;101978.44;12255788;19;19935;-86
2023/06/24 10:09:46;;;;;;;;;;;26.50;52.40;;;25.47;54.63;101963.38;12256017;19;19918;-85
2023/06/24 10:13:48;;;;;;;;;;;26.60;52.20;;;25.62;54.72;101983.25;12251345;19;19915;-87
2023/06/24 10:17:51;;;;;;;;;;;26.70;52.30;;;25.56;54.38;101957.94;12257581;19;20309;-86
2023/06/24 10:21:54;;;;;;;;;;;26.70;51.20;;;25.67;54.84;101974.75;12257151;19;19918;-85
2023/06/24 10:25:55;;;;;;;;;;;26.70;51.90;;;25.70;54.52;101977.13;12258098;19;19915;-87
2023/06/24 10:30:02;;;;;;;;;;;26.70;49.40;;;25.74;54.38;101971.31;12257554;19;19922;-88
2023/06/24 10:34:20;;;;;;;;;;;26.80;51.90;;;25.85;54.53;101972.13;12256378;19;19923;-85
2023/06/24 10:38:21;;;;;;;;;;;26.90;51.70;;;25.91;54.15;101963.47;12255821;19;19951;-86
2023/06/24 10:42:43;;;;;;;;;;;26.90;51.40;;;25.91;54.35;101947.41;12256872;19;19915;-86
2023/06/24 10:46:54;;;;;;;;;;;27.00;51.70;;;26.09;54.13;101974.16;12258040;19;19974;-87
2023/06/24 10:50:55;;;;;;;;;;;27.10;51.20;;;26.09;53.78;101958.09;12255814;19;19915;-87
2023/06/24 10:54:58;;;;;;;;;;;27.10;51.40;;;26.08;54.14;101951.88;12255049;19;19942;-86
2023/06/24 10:59:00;;;;;;;;;;;27.20;51.30;;;26.21;53.96;101948.78;12253516;19;19918;-85
2023/06/24 11:03:09;;;;;;;;;;;27.20;51.20;;;26.25;53.56;101952.84;12253980;19;19934;-86
2023/06/24 11:07:11;;;;;;;;;;;27.30;51.10;;;26.30;53.83;101939.78;12255197;19;19915;-87
2023/06/24 11:11:19;;;;;;;;;;;27.30;50.90;;;26.38;53.82;101950.56;12252613;19;19915;-86
2023/06/24 11:15:20;;;;;;;;;;;27.40;50.30;;;26.43;53.59;101950.06;12254912;19;19926;-86
2023/06/24 11:19:22;;;;;;;;;;;27.40;50.80;;;26.46;53.46;101945.25;12251863;19;19952;-87
2023/06/24 11:23:24;;;;;;;;;;;27.50;51.20;;;26.36;53.40;101917.75;12250816;19;20347;-86
2023/06/24 11:27:26;;;;;;;;;;;27.50;50.90;;;26.59;53.58;101944.00;12252873;19;19911;-86
2023/06/24 11:31:28;;;;;;;;;;;27.60;50.10;;;26.62;53.42;101939.16;12249614;19;19922;-87
2023/06/24 11:35:30;;;;;;;;;;;27.60;50.50;;;26.68;52.92;101943.03;12242928;19;19922;-86
2023/06/24 11:39:32;;;;;;;;;;;27.70;50.40;;;26.76;52.90;101942.22;12247464;19;20345;-86
2023/06/24 11:43:34;;;;;;;;;;;27.70;50.80;;;26.76;52.70;101940.41;12243628;19;19930;-86
2023/06/24 11:47:37;;;;;;;;;;;27.80;50.60;;;26.80;52.95;101940.91;12247021;19;19922;-86
2023/06/24 11:51:47;;;;;;;;;;;27.80;50.30;;;26.84;53.17;101934.22;12246743;19;19915;-87
2023/06/24 11:55:52;;;;;;;;;;;27.80;51.00;;;26.92;53.11;101937.78;12240141;19;20253;-86
2023/06/24 11:59:53;;;;;;;;;;;27.90;49.00;;;26.98;52.78;101933.63;12245528;19;19915;-87
2023/06/24 12:04:01;;;;;;;;;;;27.90;50.20;;;27.04;52.89;101929.44;12246136;19;19915;-87
2023/06/24 12:08:07;;;;;;;;;;;28.00;50.10;;;27.02;52.39;101923.38;12246575;19;19918;-87
2023/06/24 12:12:09;;;;;;;;;;;28.00;50.30;;;27.14;52.73;101939.00;12245095;19;19910;-86
2023/06/24 12:16:10;;;;;;;;;;;28.10;50.50;;;27.00;52.29;101898.56;12247379;19;19922;-86
2023/06/24 12:20:14;;;;;;;;;;;28.10;50.00;;;27.27;51.96;101935.03;12247549;19;19978;-86
2023/06/24 12:24:15;;;;;;;;;;;28.20;49.70;;;27.26;52.44;101930.69;12246784;19;19918;-86
2023/06/24 12:28:16;;;;;;;;;;;28.30;49.70;;;27.31;52.03;101937.22;12245490;19;19923;-85
2023/06/24 12:32:18;;;;;;;;;;;28.30;49.80;;;27.36;52.12;101917.97;12254610;19;19959;-86
2023/06/24 12:36:21;;;;;;;;;;;28.30;49.70;;;27.36;52.46;101905.38;12258593;19;19930;-86
2023/06/24 12:40:22;;;;;;;;;;;28.40;48.30;;;27.46;52.28;101923.16;12260512;19;19911;-86
2023/06/24 12:44:24;;;;;;;;;;;28.40;48.60;;;27.51;51.96;101923.50;12251754;19;19956;-86
2023/06/24 12:48:26;;;;;;;;;;;28.50;49.50;;;27.50;51.85;101909.25;12255939;19;19919;-87
2023/06/24 12:52:28;;;;;;;;;;;28.50;49.80;;;27.53;51.51;101916.13;12254195;19;19951;-87
2023/06/24 12:56:29;;;;;;;;;;;28.50;49.30;;;27.54;51.40;101912.41;12254702;19;20268;-87
2023/06/24 13:00:31;;;;;;;;;;;28.50;49.70;;;27.58;51.58;101913.78;12255272;19;19952;-86
2023/06/24 13:04:32;;;;;;;;;;;28.50;49.60;;;27.63;51.26;101907.91;12248336;19;19994;-86
2023/06/24 13:08:34;;;;;;;;;;;28.60;49.60;;;27.67;51.65;101904.72;12248275;19;19918;-86
2023/06/24 13:12:36;;;;;;;;;;;28.60;49.60;;;27.68;51.47;101901.03;12249532;19;19927;-86
2023/06/24 13:16:38;;;;;;;;;;;28.70;49.30;;;27.82;51.37;101922.88;12255206;19;19919;-86
2023/06/24 13:20:39;;;;;;;;;;;28.70;49.00;;;27.85;51.24;101914.47;12253678;19;20252;-86
2023/06/24 13:24:41;;;;;;;;;;;28.70;48.80;;;27.86;51.23;101902.72;12249433;19;19915;-87
2023/06/24 13:28:43;;;;;;;;;;;28.80;48.80;;;27.92;50.73;101902.88;12247735;19;19918;-87
2023/06/24 13:32:45;;;;;;;;;;;28.90;48.90;;;27.95;50.76;101896.31;12250205;19;20242;-86
2023/06/24 13:36:47;;;;;;;;;;;29.00;48.50;;;28.07;50.74;101911.06;12253447;19;19927;-86
2023/06/24 13:40:49;;;;;;;;;;;29.00;48.30;;;28.14;50.44;101906.69;12251447;19;19915;-86
2023/06/24 13:44:51;;;;;;;;;;;29.10;48.30;;;28.22;50.52;101909.38;12249588;19;19977;-86
2023/06/24 13:48:53;;;;;;;;;;;29.10;48.30;;;28.28;50.50;101904.31;12245108;19;19942;-86
2023/06/24 13:52:55;;;;;;;;;;;29.20;47.60;;;28.35;50.63;101894.53;12248232;19;19927;-86
2023/06/24 13:56:56;;;;;;;;;;;29.30;48.10;;;28.35;50.35;101886.47;12249528;19;19915;-86
2023/06/24 14:00:58;;;;;;;;;;;29.40;47.50;;;28.43;50.50;101894.53;12250264;19;19937;-86
2023/06/24 14:05:00;;;;;;;;;;;29.40;48.00;;;28.51;50.24;101894.50;12248388;19;19931;-86
2023/06/24 14:09:01;;;;;;;;;;;29.40;47.90;;;28.42;50.15;101868.66;12240185;19;19942;-86
2023/06/24 14:13:02;;;;;;;;;;;29.50;48.10;;;28.60;50.43;101893.47;12250198;19;19939;-86
2023/06/24 14:17:08;;;;;;;;;;;29.50;47.10;;;28.63;49.96;101886.91;12249519;19;19918;-86
2023/06/24 14:21:10;;;;;;;;;;;29.50;48.00;;;28.66;49.81;101897.31;12249514;19;19934;-87
2023/06/24 14:25:11;;;;;;;;;;;29.60;47.30;;;28.64;49.97;101886.72;12249699;19;19923;-87
2023/06/24 14:29:13;;;;;;;;;;;29.60;47.20;;;28.63;49.92;101874.31;12245532;19;19930;-87
2023/06/24 14:33:15;;;;;;;;;;;29.60;47.80;;;28.78;49.66;101869.00;12245577;19;19922;-86
2023/06/24 14:37:16;;;;;;;;;;;29.60;45.90;;;28.73;49.53;101878.59;12245678;19;19919;-86
2023/06/24 14:41:18;;;;;;;;;;;29.60;46.40;;;28.58;49.37;101844.41;12248799;19;20290;-87
2023/06/24 14:45:20;;;;;;;;;;;29.60;46.70;;;28.82;49.29;101878.41;12247002;19;19960;-86
2023/06/24 14:49:21;;;;;;;;;;;29.70;47.50;;;28.78;49.06;101869.00;12244043;19;19915;-87
2023/06/24 14:53:23;;;;;;;;;;;29.70;47.60;;;28.85;49.41;101880.72;12242785;19;19925;-87
2023/06/24 14:57:25;;;;;;;;;;;29.70;47.20;;;28.87;49.13;101862.56;12245384;19;20270;-87
2023/06/24 15:01:26;;;;;;;;;;;29.70;47.40;;;28.90;49.44;101858.69;12248088;19;19918;-87
2023/06/24 15:05:28;;;;;;;;;;;29.80;47.70;;;29.00;49.00;101867.38;12246626;19;19923;-87
2023/06/24 15:09:29;;;;;;;;;;;29.80;48.00;;;28.99;48.80;101865.69;12251051;19;20623;-86
2023/06/24 15:13:31;;;;;;;;;;;29.80;47.50;;;28.92;49.14;101848.56;12248197;19;19923;-86
2023/06/24 15:17:34;;;;;;;;;;;29.80;47.20;;;28.96;48.57;101849.06;12246119;19;20323;-87
2023/06/24 15:21:36;;;;;;;;;;;29.80;47.50;;;28.95;48.88;101842.88;12243056;19;19925;-86
2023/06/24 15:25:37;;;;;;;;;;;29.80;46.70;;;29.01;49.02;101844.81;12245605;19;19951;-87
2023/06/24 15:29:39;;;;;;;;;;;29.80;47.40;;;29.01;48.73;101838.63;12246211;19;20916;-85
2023/06/24 15:33:40;;;;;;;;;;;29.80;47.50;;;29.08;48.60;101839.59;12244495;19;19915;-86
2023/06/24 15:37:41;;;;;;;;;;;29.80;47.20;;;29.11;48.53;101841.91;12245162;19;19915;-86
2023/06/24 15:41:46;;;;;;;;;;;29.90;47.20;;;29.09;48.35;101827.81;12244395;19;20332;-86
2023/06/24 15:45:47;;;;;;;;;;;29.90;47.30;;;29.11;48.50;101834.72;12240633;19;19914;-87
2023/06/24 15:49:51;;;;;;;;;;;29.90;47.50;;;29.14;48.30;101819.19;12245784;19;19927;-86
2023/06/24 15:53:52;;;;;;;;;;;29.90;47.10;;;29.13;48.31;101823.75;12243682;19;19915;-86
2023/06/24 15:57:54;;;;;;;;;;;29.90;46.70;;;29.15;48.19;101827.09;12246559;19;20344;-86
2023/06/24 16:01:55;;;;;;;;;;;29.90;46.70;;;29.10;47.72;101837.56;12246058;19;19925;-86
2023/06/24 16:05:57;;;;;;;;;;;29.90;46.90;;;29.07;47.84;101832.53;12241815;19;19915;-86
2023/06/24 16:09:59;;;;;;;;;;;29.90;46.80;;;29.03;47.88;101839.25;12237538;19;19975;-85
2023/06/24 16:14:00;;;;;;;;;;;29.80;46.60;;;28.96;47.74;101830.25;12236747;19;19922;-86
2023/06/24 16:18:01;;;;;;;;;;;29.80;47.00;;;28.88;47.84;101823.06;12241196;19;20389;-85
2023/06/24 16:22:03;;;;;;;;;;;29.80;46.70;;;28.89;48.07;101822.03;12241807;19;20343;-85
2023/06/24 16:26:04;;;;;;;;;;;29.70;46.60;;;28.93;47.76;101836.00;12242404;19;19930;-85
2023/06/24 16:30:07;;;;;;;;;;;29.70;47.00;;;28.85;47.50;101826.94;12243374;19;19919;-87
2023/06/24 16:34:08;;;;;;;;;;;29.60;46.70;;;28.78;47.45;101819.78;12229288;19;20013;-86
2023/06/24 16:38:10;;;;;;;;;;;29.60;46.60;;;28.79;47.52;101834.91;12238245;19;19919;-86
2023/06/24 16:42:11;;;;;;;;;;;29.60;46.80;;;28.75;47.33;101828.19;12237877;19;20271;-86
2023/06/24 16:46:13;;;;;;;;;;;29.50;46.40;;;28.51;47.23;101796.91;12241402;19;19922;-86
2023/06/24 16:50:14;;;;;;;;;;;29.50;46.50;;;28.60;47.49;101818.22;12238399;19;19925;-86
2023/06/24 16:54:16;;;;;;;;;;;29.40;46.60;;;28.60;47.31;101831.66;12238097;19;19919;-86
2023/06/24 16:58:21;;;;;;;;;;;29.40;46.60;;;28.58;47.23;101828.28;12240696;19;20341;-87
2023/06/24 17:02:22;;;;;;;;;;;29.30;46.80;;;28.45;47.12;101811.91;12238857;19;19914;-85
2023/06/24 17:06:27;;;;;;;;;;;29.20;46.70;;;28.40;47.38;101822.31;12245350;19;20182;-86
2023/06/24 17:10:28;;;;;;;;;;;29.20;46.70;;;28.44;47.18;101832.56;12243318;19;19926;-86
2023/06/24 17:14:30;;;;;;;;;;;29.10;46.60;;;28.36;47.11;101823.69;12240374;19;19927;-86
2023/06/24 17:18:32;;;;;;;;;;;29.10;46.60;;;28.31;46.93;101824.19;12246800;19;19933;-86
2023/06/24 17:22:33;;;;;;;;;;;29.10;46.50;;;28.33;47.10;101832.94;12252141;19;19923;-86
2023/06/24 17:26:34;;;;;;;;;;;29.00;46.50;;;28.29;47.04;101828.06;12254198;19;19910;-86
2023/06/24 17:30:36;;;;;;;;;;;28.90;46.60;;;28.28;47.08;101827.22;12257446;19;19910;-85
2023/06/24 17:34:37;;;;;;;;;;;28.90;46.70;;;28.22;46.93;101809.97;12251283;19;20006;-86
2023/06/24 17:38:38;;;;;;;;;;;28.90;46.60;;;28.21;47.19;101816.34;12262793;19;20308;-87
2023/06/24 17:42:40;;;;;;;;;;;28.90;46.60;;;28.22;46.92;101814.50;12258475;19;19918;-86
2023/06/24 17:46:42;;;;;;;;;;;28.90;46.50;;;28.20;46.91;101813.84;12255321;19;19927;-87
2023/06/24 17:50:43;;;;;;;;;;;28.90;46.30;;;28.09;46.73;101807.00;12267526;19;19926;-87
2023/06/24 17:54:48;;;;;;;;;;;28.80;46.30;;;28.14;47.01;101825.25;12262041;19;20260;-85
2023/06/24 17:58:49;;;;;;;;;;;28.80;46.10;;;28.01;46.82;101801.66;12267995;19;19915;-86
2023/06/24 18:02:51;;;;;;;;;;;28.80;46.00;;;27.91;46.75;101795.66;12265018;19;19919;-88
2023/06/24 18:06:52;;;;;;;;;;;28.70;45.70;;;27.96;46.86;101815.59;12271245;19;20384;-89
2023/06/24 18:10:54;;;;;;;;;;;28.70;45.80;;;27.91;46.76;101815.28;12273367;19;19915;-89
2023/06/24 18:14:56;;;;;;;;;;;28.60;45.90;;;27.88;46.58;101804.03;12267940;19;19915;-88